Time;durP1;ratioP1;P1;durP2;ratioP2;P2;SDS_P1;SDS_P2;PMS_P1;PMS_P2;Temp;Humidity;BMP_temperature;BMP_pressure;BME280_temperature;BME280_humidity;BME280_pressure;Samples;Min_cycle;Max_cycle;Signal;HPM_P1;HPM_P2
2022/12/16 00:01:24;;;;;;;50.97;27.73;;;;;;;-2.97;90.36;94224.03;4947801;28;20738;-80
2022/12/16 00:03:51;;;;;;;50.77;28.47;;;;;;;-2.98;90.69;94232.56;4964502;28;20206;-82
2022/12/16 00:06:16;;;;;;;48.70;26.23;;;;;;;-2.90;90.02;94229.56;4937704;28;20213;-81
2022/12/16 00:08:42;;;;;;;42.03;24.77;;;;;;;-3.19;90.01;94228.84;4974888;28;20249;-82
2022/12/16 00:11:08;;;;;;;47.23;25.97;;;;;;;-3.31;91.31;94233.00;4959125;28;20295;-82
2022/12/16 00:13:35;;;;;;;46.30;26.37;;;;;;;-3.05;90.50;94236.41;4949505;28;20657;-82
2022/12/16 00:16:08;;;;;;;48.57;26.80;;;;;;;-3.26;90.42;94236.06;4963484;28;20215;-82
2022/12/16 00:18:34;;;;;;;45.37;24.93;;;;;;;-3.26;91.21;94240.34;4957216;28;20212;-82
2022/12/16 00:21:00;;;;;;;48.30;25.53;;;;;;;-3.31;91.45;94237.25;4937210;28;20719;-82
2022/12/16 00:23:26;;;;;;;46.50;25.20;;;;;;;-3.31;91.91;94234.72;4949583;28;20577;-82
2022/12/16 00:25:51;;;;;;;41.20;23.63;;;;;;;-3.25;91.63;94234.34;4954393;28;20255;-82
2022/12/16 00:28:17;;;;;;;46.87;26.90;;;;;;;-3.06;90.97;94237.34;4964591;28;20188;-81
2022/12/16 00:30:43;;;;;;;48.63;25.80;;;;;;;-2.97;90.51;94230.84;4947647;28;20679;-81
2022/12/16 00:33:08;;;;;;;47.90;26.53;;;;;;;-3.00;90.60;94229.31;4963278;28;20231;-82
2022/12/16 00:35:35;;;;;;;53.67;27.77;;;;;;;-3.01;89.84;94242.09;4962322;28;20673;-82
2022/12/16 00:38:00;;;;;;;43.87;24.47;;;;;;;-3.36;90.79;94240.06;4937756;28;20194;-84
2022/12/16 00:40:25;;;;;;;46.30;26.13;;;;;;;-3.17;91.43;94235.47;4948052;28;20209;-82
2022/12/16 00:42:51;;;;;;;50.47;27.07;;;;;;;-3.01;91.26;94247.19;4947227;28;20191;-83
2022/12/16 00:45:16;;;;;;;47.03;26.83;;;;;;;-3.08;90.60;94249.31;4961034;28;20291;-82
2022/12/16 00:47:41;;;;;;;52.10;28.03;;;;;;;-3.20;91.17;94250.88;4944821;28;20247;-83
2022/12/16 00:50:07;;;;;;;41.87;23.93;;;;;;;-3.16;90.36;94257.41;4961032;28;20243;-82
2022/12/16 00:52:33;;;;;;;53.80;25.53;;;;;;;-3.11;90.00;94269.00;4939052;28;20244;-82
2022/12/16 00:54:59;;;;;;;42.83;24.43;;;;;;;-3.11;90.00;94269.00;4961408;28;20212;-83
2022/12/16 00:57:24;;;;;;;47.30;25.93;;;;;;;-3.11;90.97;94269.00;4961148;28;20184;-83
2022/12/16 00:59:50;;;;;;;42.83;25.23;;;;;;;-2.95;90.53;94269.66;4960309;28;20213;-83
2022/12/16 01:02:15;;;;;;;50.23;25.50;;;;;;;-2.95;89.85;94272.19;4961128;28;20184;-82
2022/12/16 01:04:40;;;;;;;46.20;24.23;;;;;;;-2.88;89.92;94281.06;4959127;28;20195;-82
2022/12/16 01:07:05;;;;;;;45.43;24.83;;;;;;;-3.06;89.71;94279.69;4960698;28;20247;-83
2022/12/16 01:09:31;;;;;;;44.57;24.67;;;;;;;-2.94;89.55;94271.28;4960411;28;20637;-82
2022/12/16 01:11:56;;;;;;;44.03;23.63;;;;;;;-2.90;89.57;94277.81;4944788;28;20199;-83
2022/12/16 01:14:22;;;;;;;46.93;25.60;;;;;;;-2.95;89.34;94275.56;4944409;28;20220;-82
2022/12/16 01:16:47;;;;;;;44.30;24.97;;;;;;;-2.95;89.77;94270.47;4944148;28;20236;-82
2022/12/16 01:19:12;;;;;;;42.03;24.07;;;;;;;-2.98;89.43;94270.69;4960779;28;20574;-83
2022/12/16 01:21:38;;;;;;;42.60;23.30;;;;;;;-3.01;89.85;94268.31;4961038;28;20242;-82
2022/12/16 01:24:03;;;;;;;43.93;23.27;;;;;;;-2.96;89.25;94273.94;4944778;28;21098;-82
2022/12/16 01:26:30;;;;;;;43.30;24.57;;;;;;;-2.91;89.52;94271.09;4952966;28;20220;-82
2022/12/16 01:28:55;;;;;;;42.17;23.73;;;;;;;-2.89;89.34;94271.81;4935864;28;20233;-83
2022/12/16 01:31:22;;;;;;;42.57;23.90;;;;;;;-2.98;89.85;94282.56;4930788;28;20216;-84
2022/12/16 01:33:47;;;;;;;44.23;24.77;;;;;;;-2.90;89.88;94280.34;4944427;28;20193;-81
2022/12/16 01:36:12;;;;;;;44.50;24.23;;;;;;;-3.31;90.38;94286.31;4950331;28;20693;-83
2022/12/16 01:38:41;;;;;;;42.00;23.00;;;;;;;-3.08;89.90;94284.88;4960740;28;20201;-82
2022/12/16 01:41:06;;;;;;;38.77;23.27;;;;;;;-3.00;89.42;94292.81;4958811;28;20271;-82
2022/12/16 01:43:34;;;;;;;39.17;22.53;;;;;;;-3.12;89.86;94291.03;4943326;28;20194;-82
2022/12/16 01:46:12;;;;;;;42.17;22.47;;;;;;;-3.48;90.58;94296.69;4958467;28;20224;-82
2022/12/16 01:48:46;;;;;;;41.60;23.07;;;;;;;-3.35;91.76;94297.56;4959766;28;20707;-80
2022/12/16 01:51:24;;;;;;;45.30;23.97;;;;;;;-3.07;90.39;94300.94;4941354;28;20852;-82
2022/12/16 01:53:51;;;;;;;43.60;24.57;;;;;;;-3.38;90.77;94295.19;4956444;28;20196;-83
2022/12/16 01:56:18;;;;;;;42.87;24.23;;;;;;;-3.29;91.19;94301.44;4944671;28;20682;-83
2022/12/16 01:58:44;;;;;;;43.80;24.80;;;;;;;-3.31;91.56;94304.06;4959010;28;20193;-82
2022/12/16 02:01:10;;;;;;;45.03;24.67;;;;;;;-3.33;91.01;94300.81;4959144;28;20640;-82
2022/12/16 02:03:36;;;;;;;45.67;24.07;;;;;;;-3.45;92.42;94306.63;4943439;28;20284;-82
2022/12/16 02:06:03;;;;;;;43.67;24.70;;;;;;;-3.16;91.30;94310.75;4958797;28;20259;-81
2022/12/16 02:08:28;;;;;;;45.10;26.20;;;;;;;-3.11;90.37;94304.56;4959595;28;20219;-81
2022/12/16 02:11:26;;;;;;;42.30;23.20;;;;;;;-3.01;90.24;94313.22;4959553;28;20188;-84
2022/12/16 02:14:13;;;;;;;43.23;25.07;;;;;;;-3.08;90.68;94315.34;4976064;28;20723;-84
2022/12/16 02:16:46;;;;;;;42.03;24.27;;;;;;;-3.07;90.46;94316.16;4958889;28;20262;-82
2022/12/16 02:19:17;;;;;;;45.37;24.50;;;;;;;-3.10;90.83;94313.78;4940170;28;20205;-82
2022/12/16 02:22:20;;;;;;;41.43;24.33;;;;;;;-3.02;90.37;94322.56;4979038;28;20236;-82
2022/12/16 02:25:04;;;;;;;44.23;23.67;;;;;;;-3.16;90.74;94322.63;4958256;28;20247;-83
2022/12/16 02:28:07;;;;;;;38.27;23.37;;;;;;;-2.90;89.88;94323.53;4977026;28;20192;-84
2022/12/16 02:30:45;;;;;;;41.50;23.47;;;;;;;-3.02;90.11;94321.75;4919641;29;20201;-82
2022/12/16 02:33:18;;;;;;;41.00;21.47;;;;;;;-3.34;91.32;94314.44;4920066;29;20201;-83
2022/12/16 02:35:54;;;;;;;39.27;20.87;;;;;;;-3.13;90.80;94315.63;4923906;29;20229;-83
2022/12/16 02:38:29;;;;;;;37.43;21.83;;;;;;;-3.07;90.79;94318.69;4918202;29;20193;-83
2022/12/16 02:40:58;;;;;;;37.90;21.03;;;;;;;-3.09;90.19;94318.81;4933573;29;20229;-81
2022/12/16 02:43:49;;;;;;;35.30;22.03;;;;;;;-3.06;89.29;94321.16;4933605;29;20198;-81
2022/12/16 02:46:16;;;;;;;39.53;22.00;;;;;;;-3.01;89.54;94321.66;4917848;29;20210;-81
2022/12/16 02:48:41;;;;;;;39.47;22.53;;;;;;;-3.02;89.97;94329.38;4918147;29;20209;-82
2022/12/16 02:51:07;;;;;;;35.83;21.53;;;;;;;-3.12;89.88;94331.69;4909088;29;20197;-82
2022/12/16 02:53:34;;;;;;;37.07;22.57;;;;;;;-3.15;89.98;94332.69;4933734;29;20860;-82
2022/12/16 02:56:05;;;;;;;34.73;21.70;;;;;;;-3.33;91.32;94338.91;4902778;29;20653;-80
2022/12/16 02:58:48;;;;;;;39.17;22.17;;;;;;;-3.25;91.59;94339.25;4933719;29;20185;-82
2022/12/16 03:01:29;;;;;;;37.40;21.57;;;;;;;-2.88;89.97;94347.13;4914794;29;20230;-80
2022/12/16 03:04:30;;;;;;;34.43;20.63;;;;;;;-2.95;89.75;94340.78;4917411;29;20201;-82
2022/12/16 03:06:56;;;;;;;40.87;21.67;;;;;;;-3.08;90.21;94345.81;4933465;28;20212;-81
2022/12/16 03:09:25;;;;;;;36.00;21.03;;;;;;;-3.05;89.88;94343.09;4941164;28;20216;-83
2022/12/16 03:11:53;;;;;;;36.07;21.57;;;;;;;-2.98;89.29;94349.41;4958054;28;20262;-80
2022/12/16 03:14:19;;;;;;;36.93;21.30;;;;;;;-3.03;89.61;94348.06;4957414;28;20695;-81
2022/12/16 03:16:46;;;;;;;35.30;21.00;;;;;;;-3.00;89.23;94348.72;4957489;28;20291;-82
2022/12/16 03:19:12;;;;;;;39.47;21.37;;;;;;;-2.98;89.67;94348.59;4940699;28;20668;-82
2022/12/16 03:21:44;;;;;;;38.27;20.90;;;;;;;-2.88;89.64;94355.56;4958034;28;20228;-82
2022/12/16 03:24:12;;;;;;;35.47;21.27;;;;;;;-2.88;89.85;94353.00;4931895;28;20236;-82
2022/12/16 03:26:43;;;;;;;34.97;19.90;;;;;;;-2.92;89.79;94359.19;4940864;28;20223;-82
2022/12/16 03:29:14;;;;;;;33.67;18.93;;;;;;;-3.16;90.07;94366.63;4954944;28;20582;-82
2022/12/16 03:31:49;;;;;;;32.77;20.07;;;;;;;-3.13;89.82;94358.78;4955332;28;20192;-82
2022/12/16 03:34:17;;;;;;;33.57;20.07;;;;;;;-3.05;89.55;94360.88;4956701;28;20270;-81
2022/12/16 03:36:47;;;;;;;35.63;20.03;;;;;;;-2.96;89.42;94364.56;4957050;28;20239;-82
2022/12/16 03:39:13;;;;;;;35.03;19.97;;;;;;;-2.99;89.66;94369.84;4955631;28;20199;-81
2022/12/16 03:41:39;;;;;;;33.33;20.33;;;;;;;-3.02;89.86;94372.53;4941501;28;20218;-81
2022/12/16 03:44:06;;;;;;;36.47;19.93;;;;;;;-3.04;90.00;94372.66;4957423;28;20239;-80
2022/12/16 03:46:31;;;;;;;33.80;19.50;;;;;;;-2.96;90.36;94367.09;4933897;28;20212;-81
2022/12/16 03:48:57;;;;;;;29.13;19.73;;;;;;;-2.99;90.07;94370.66;4957404;28;20205;-81
2022/12/16 03:51:23;;;;;;;34.43;20.53;;;;;;;-2.97;90.04;94368.00;4957006;28;20188;-81
2022/12/16 03:53:48;;;;;;;30.30;18.50;;;;;;;-3.00;89.46;94378.38;4957361;28;20220;-82
2022/12/16 03:56:13;;;;;;;31.53;19.33;;;;;;;-3.02;89.49;94375.09;4956349;28;20216;-83
2022/12/16 03:58:39;;;;;;;31.90;19.83;;;;;;;-3.09;90.00;94379.75;4974479;28;20196;-82
2022/12/16 04:01:09;;;;;;;32.43;18.43;;;;;;;-3.11;89.66;94376.47;4956622;28;20234;-82
2022/12/16 04:03:35;;;;;;;34.63;19.67;;;;;;;-3.24;90.66;94391.66;4974459;28;20248;-82
2022/12/16 04:06:01;;;;;;;35.23;20.23;;;;;;;-3.14;90.81;94387.63;4943414;28;20211;-82
2022/12/16 04:08:26;;;;;;;39.00;21.80;;;;;;;-3.31;90.43;94384.50;4933107;28;20567;-82
2022/12/16 04:24:32;;;;;;;29.93;17.53;;;;;;;-3.07;89.24;94402.50;4961175;28;20264;-81
2022/12/16 04:32:26;;;;;;;28.10;15.37;;;;;;;-3.02;89.08;94413.19;4961258;28;20230;-81
2022/12/16 04:34:52;;;;;;;27.13;15.17;;;;;;;-3.12;88.46;94405.31;4950967;28;20221;-83
